sensor_id;sensor_type;location;lat;lon;timestamp;P1;durP1;ratioP1;P2;durP2;ratioP2
64667;SDS011;51077;42.716;23.344;2023-04-03T00:00:54;8.53;;;4.73;;
64667;SDS011;51077;42.716;23.344;2023-04-03T00:03:21;12.73;;;5.18;;
64667;SDS011;51077;42.716;23.344;2023-04-03T00:05:47;8.80;;;4.73;;
64667;SDS011;51077;42.716;23.344;2023-04-03T00:08:12;8.33;;;4.00;;
64667;SDS011;51077;42.716;23.344;2023-04-03T00:10:38;9.13;;;3.97;;
64667;SDS011;51077;42.716;23.344;2023-04-03T00:13:04;10.07;;;4.30;;
64667;SDS011;51077;42.716;23.344;2023-04-03T00:15:30;7.88;;;4.63;;
64667;SDS011;51077;42.716;23.344;2023-04-03T00:17:56;8.00;;;4.47;;
64667;SDS011;51077;42.716;23.344;2023-04-03T00:20:22;8.23;;;4.63;;
64667;SDS011;51077;42.716;23.344;2023-04-03T00:22:48;8.95;;;4.75;;
64667;SDS011;51077;42.716;23.344;2023-04-03T00:25:13;7.73;;;4.27;;
64667;SDS011;51077;42.716;23.344;2023-04-03T00:27:39;7.60;;;4.23;;
64667;SDS011;51077;42.716;23.344;2023-04-03T00:30:05;9.33;;;4.47;;
64667;SDS011;51077;42.716;23.344;2023-04-03T00:32:33;7.22;;;4.05;;
64667;SDS011;51077;42.716;23.344;2023-04-03T00:34:58;8.07;;;4.27;;
64667;SDS011;51077;42.716;23.344;2023-04-03T00:37:24;8.13;;;4.13;;
64667;SDS011;51077;42.716;23.344;2023-04-03T00:39:49;7.03;;;3.93;;
64667;SDS011;51077;42.716;23.344;2023-04-03T00:42:15;10.73;;;4.70;;
64667;SDS011;51077;42.716;23.344;2023-04-03T00:47:07;7.93;;;3.83;;
64667;SDS011;51077;42.716;23.344;2023-04-03T00:49:35;8.18;;;4.28;;
64667;SDS011;51077;42.716;23.344;2023-04-03T00:52:02;8.13;;;4.50;;
64667;SDS011;51077;42.716;23.344;2023-04-03T00:54:28;7.70;;;4.18;;
64667;SDS011;51077;42.716;23.344;2023-04-03T00:56:54;7.85;;;4.35;;
64667;SDS011;51077;42.716;23.344;2023-04-03T00:59:24;7.90;;;4.88;;
64667;SDS011;51077;42.716;23.344;2023-04-03T01:01:55;8.77;;;4.70;;
64667;SDS011;51077;42.716;23.344;2023-04-03T01:04:30;9.63;;;4.90;;
64667;SDS011;51077;42.716;23.344;2023-04-03T01:07:01;8.27;;;4.85;;
64667;SDS011;51077;42.716;23.344;2023-04-03T01:09:35;9.57;;;4.72;;
64667;SDS011;51077;42.716;23.344;2023-04-03T01:15:09;8.65;;;3.92;;
64667;SDS011;51077;42.716;23.344;2023-04-03T01:17:43;8.35;;;4.28;;
64667;SDS011;51077;42.716;23.344;2023-04-03T01:25:40;7.47;;;4.38;;
64667;SDS011;51077;42.716;23.344;2023-04-03T01:28:06;7.22;;;4.20;;
64667;SDS011;51077;42.716;23.344;2023-04-03T01:33:37;8.55;;;4.38;;
64667;SDS011;51077;42.716;23.344;2023-04-03T01:36:03;5.77;;;3.53;;
64667;SDS011;51077;42.716;23.344;2023-04-03T01:38:29;6.15;;;3.63;;
64667;SDS011;51077;42.716;23.344;2023-04-03T01:40:55;7.27;;;3.70;;
64667;SDS011;51077;42.716;23.344;2023-04-03T01:43:20;8.30;;;4.03;;
64667;SDS011;51077;42.716;23.344;2023-04-03T01:45:46;7.23;;;4.03;;
64667;SDS011;51077;42.716;23.344;2023-04-03T01:48:12;5.17;;;3.37;;
64667;SDS011;51077;42.716;23.344;2023-04-03T01:50:38;7.38;;;3.78;;
64667;SDS011;51077;42.716;23.344;2023-04-03T01:53:03;7.20;;;3.27;;
64667;SDS011;51077;42.716;23.344;2023-04-03T01:55:29;5.23;;;3.00;;
64667;SDS011;51077;42.716;23.344;2023-04-03T01:57:54;5.53;;;3.17;;
64667;SDS011;51077;42.716;23.344;2023-04-03T02:00:20;5.80;;;3.77;;
64667;SDS011;51077;42.716;23.344;2023-04-03T02:02:45;6.43;;;3.23;;
64667;SDS011;51077;42.716;23.344;2023-04-03T02:05:10;6.27;;;3.40;;
64667;SDS011;51077;42.716;23.344;2023-04-03T02:07:36;5.67;;;2.93;;
64667;SDS011;51077;42.716;23.344;2023-04-03T02:10:02;6.47;;;3.33;;
64667;SDS011;51077;42.716;23.344;2023-04-03T02:12:27;5.53;;;3.20;;
64667;SDS011;51077;42.716;23.344;2023-04-03T02:14:53;5.70;;;3.07;;
64667;SDS011;51077;42.716;23.344;2023-04-03T02:17:18;8.07;;;3.10;;
64667;SDS011;51077;42.716;23.344;2023-04-03T02:19:43;5.30;;;2.77;;
64667;SDS011;51077;42.716;23.344;2023-04-03T02:22:09;5.97;;;3.37;;
64667;SDS011;51077;42.716;23.344;2023-04-03T02:24:34;7.77;;;3.80;;
64667;SDS011;51077;42.716;23.344;2023-04-03T02:27:00;8.33;;;4.80;;
64667;SDS011;51077;42.716;23.344;2023-04-03T02:29:25;8.03;;;4.30;;
64667;SDS011;51077;42.716;23.344;2023-04-03T02:31:51;6.40;;;3.93;;
64667;SDS011;51077;42.716;23.344;2023-04-03T02:34:16;7.73;;;4.20;;
64667;SDS011;51077;42.716;23.344;2023-04-03T02:36:42;8.07;;;3.83;;
64667;SDS011;51077;42.716;23.344;2023-04-03T02:39:08;7.43;;;4.23;;
64667;SDS011;51077;42.716;23.344;2023-04-03T02:41:34;8.02;;;4.22;;
64667;SDS011;51077;42.716;23.344;2023-04-03T02:44:02;8.13;;;4.70;;
64667;SDS011;51077;42.716;23.344;2023-04-03T02:46:29;7.78;;;4.35;;
64667;SDS011;51077;42.716;23.344;2023-04-03T02:48:54;8.60;;;3.90;;
64667;SDS011;51077;42.716;23.344;2023-04-03T02:51:20;7.03;;;3.70;;
64667;SDS011;51077;42.716;23.344;2023-04-03T02:53:45;7.93;;;4.17;;
64667;SDS011;51077;42.716;23.344;2023-04-03T02:56:11;6.33;;;3.27;;
64667;SDS011;51077;42.716;23.344;2023-04-03T02:58:36;6.90;;;4.10;;
64667;SDS011;51077;42.716;23.344;2023-04-03T03:01:02;7.80;;;3.77;;
64667;SDS011;51077;42.716;23.344;2023-04-03T03:03:27;7.70;;;4.00;;
64667;SDS011;51077;42.716;23.344;2023-04-03T03:06:05;8.90;;;4.10;;
64667;SDS011;51077;42.716;23.344;2023-04-03T03:08:32;9.43;;;4.43;;
64667;SDS011;51077;42.716;23.344;2023-04-03T03:10:58;7.20;;;3.87;;
64667;SDS011;51077;42.716;23.344;2023-04-03T03:13:23;8.33;;;4.43;;
64667;SDS011;51077;42.716;23.344;2023-04-03T03:15:49;9.02;;;4.75;;
64667;SDS011;51077;42.716;23.344;2023-04-03T03:18:15;7.63;;;4.30;;
64667;SDS011;51077;42.716;23.344;2023-04-03T03:20:40;9.93;;;4.50;;
64667;SDS011;51077;42.716;23.344;2023-04-03T03:23:05;12.23;;;5.03;;
64667;SDS011;51077;42.716;23.344;2023-04-03T03:25:31;9.43;;;4.60;;
64667;SDS011;51077;42.716;23.344;2023-04-03T03:27:56;7.23;;;3.70;;
64667;SDS011;51077;42.716;23.344;2023-04-03T03:30:22;8.03;;;4.23;;
64667;SDS011;51077;42.716;23.344;2023-04-03T03:32:47;8.20;;;4.43;;
64667;SDS011;51077;42.716;23.344;2023-04-03T03:35:12;7.03;;;3.90;;
64667;SDS011;51077;42.716;23.344;2023-04-03T03:37:38;9.60;;;4.37;;
64667;SDS011;51077;42.716;23.344;2023-04-03T03:40:03;7.63;;;4.47;;
64667;SDS011;51077;42.716;23.344;2023-04-03T03:42:29;8.97;;;4.47;;
64667;SDS011;51077;42.716;23.344;2023-04-03T03:44:54;8.97;;;4.63;;
64667;SDS011;51077;42.716;23.344;2023-04-03T03:47:20;7.47;;;4.07;;
64667;SDS011;51077;42.716;23.344;2023-04-03T03:49:45;8.30;;;4.67;;
64667;SDS011;51077;42.716;23.344;2023-04-03T03:52:11;8.63;;;4.50;;
64667;SDS011;51077;42.716;23.344;2023-04-03T03:54:36;8.40;;;4.83;;
64667;SDS011;51077;42.716;23.344;2023-04-03T03:57:02;8.05;;;4.93;;
64667;SDS011;51077;42.716;23.344;2023-04-03T03:59:28;10.73;;;4.73;;
64667;SDS011;51077;42.716;23.344;2023-04-03T04:01:53;8.90;;;4.53;;
64667;SDS011;51077;42.716;23.344;2023-04-03T04:04:19;8.35;;;4.70;;
64667;SDS011;51077;42.716;23.344;2023-04-03T04:06:45;8.70;;;4.50;;
64667;SDS011;51077;42.716;23.344;2023-04-03T04:09:11;8.00;;;4.57;;
64667;SDS011;51077;42.716;23.344;2023-04-03T04:11:36;10.50;;;4.33;;
64667;SDS011;51077;42.716;23.344;2023-04-03T04:14:01;8.00;;;4.53;;
64667;SDS011;51077;42.716;23.344;2023-04-03T04:16:27;7.63;;;4.30;;
64667;SDS011;51077;42.716;23.344;2023-04-03T04:18:52;9.63;;;5.03;;
64667;SDS011;51077;42.716;23.344;2023-04-03T04:21:18;9.50;;;4.40;;
64667;SDS011;51077;42.716;23.344;2023-04-03T04:23:43;10.83;;;5.13;;
64667;SDS011;51077;42.716;23.344;2023-04-03T04:26:09;8.93;;;4.97;;
64667;SDS011;51077;42.716;23.344;2023-04-03T04:28:34;8.70;;;5.00;;
64667;SDS011;51077;42.716;23.344;2023-04-03T04:31:00;8.60;;;4.90;;
64667;SDS011;51077;42.716;23.344;2023-04-03T04:33:25;9.60;;;5.40;;
64667;SDS011;51077;42.716;23.344;2023-04-03T04:35:51;10.27;;;5.03;;
64667;SDS011;51077;42.716;23.344;2023-04-03T04:38:16;9.97;;;5.83;;
64667;SDS011;51077;42.716;23.344;2023-04-03T04:40:42;14.17;;;6.27;;
64667;SDS011;51077;42.716;23.344;2023-04-03T04:43:07;16.10;;;7.40;;
64667;SDS011;51077;42.716;23.344;2023-04-03T04:45:33;13.00;;;7.10;;
64667;SDS011;51077;42.716;23.344;2023-04-03T04:47:58;13.00;;;6.40;;
64667;SDS011;51077;42.716;23.344;2023-04-03T04:50:24;13.80;;;6.63;;
64667;SDS011;51077;42.716;23.344;2023-04-03T04:52:49;14.30;;;7.50;;
64667;SDS011;51077;42.716;23.344;2023-04-03T04:55:14;20.47;;;9.83;;
64667;SDS011;51077;42.716;23.344;2023-04-03T04:57:40;18.03;;;9.13;;
64667;SDS011;51077;42.716;23.344;2023-04-03T05:00:06;15.70;;;8.93;;
64667;SDS011;51077;42.716;23.344;2023-04-03T05:02:31;21.13;;;11.60;;
64667;SDS011;51077;42.716;23.344;2023-04-03T05:04:57;21.97;;;10.90;;
64667;SDS011;51077;42.716;23.344;2023-04-03T05:07:22;18.03;;;9.33;;
64667;SDS011;51077;42.716;23.344;2023-04-03T05:09:48;17.90;;;9.37;;
64667;SDS011;51077;42.716;23.344;2023-04-03T05:12:13;19.77;;;9.90;;
64667;SDS011;51077;42.716;23.344;2023-04-03T05:14:39;18.37;;;9.23;;
64667;SDS011;51077;42.716;23.344;2023-04-03T05:17:04;15.77;;;8.90;;
64667;SDS011;51077;42.716;23.344;2023-04-03T05:19:29;16.00;;;10.07;;
64667;SDS011;51077;42.716;23.344;2023-04-03T05:21:55;17.87;;;8.90;;
64667;SDS011;51077;42.716;23.344;2023-04-03T05:24:20;16.43;;;9.53;;
64667;SDS011;51077;42.716;23.344;2023-04-03T05:26:46;19.77;;;11.77;;
64667;SDS011;51077;42.716;23.344;2023-04-03T05:29:11;21.20;;;11.10;;
64667;SDS011;51077;42.716;23.344;2023-04-03T05:31:37;21.43;;;12.30;;
64667;SDS011;51077;42.716;23.344;2023-04-03T05:34:02;20.80;;;12.00;;
64667;SDS011;51077;42.716;23.344;2023-04-03T05:36:28;23.07;;;12.73;;
64667;SDS011;51077;42.716;23.344;2023-04-03T05:38:53;21.53;;;12.63;;
64667;SDS011;51077;42.716;23.344;2023-04-03T05:41:21;19.25;;;10.95;;
64667;SDS011;51077;42.716;23.344;2023-04-03T05:43:47;18.20;;;11.20;;
64667;SDS011;51077;42.716;23.344;2023-04-03T05:46:13;22.23;;;12.10;;
64667;SDS011;51077;42.716;23.344;2023-04-03T05:48:42;20.75;;;11.65;;
64667;SDS011;51077;42.716;23.344;2023-04-03T05:51:13;19.23;;;11.40;;
64667;SDS011;51077;42.716;23.344;2023-04-03T05:53:55;18.02;;;11.82;;
64667;SDS011;51077;42.716;23.344;2023-04-03T05:56:26;19.73;;;11.77;;
64667;SDS011;51077;42.716;23.344;2023-04-03T05:58:52;25.13;;;11.73;;
64667;SDS011;51077;42.716;23.344;2023-04-03T06:01:17;17.37;;;10.70;;
64667;SDS011;51077;42.716;23.344;2023-04-03T06:03:42;19.27;;;10.40;;
64667;SDS011;51077;42.716;23.344;2023-04-03T06:06:10;17.53;;;10.80;;
64667;SDS011;51077;42.716;23.344;2023-04-03T06:08:38;20.98;;;11.60;;
64667;SDS011;51077;42.716;23.344;2023-04-03T06:11:04;19.63;;;10.47;;
64667;SDS011;51077;42.716;23.344;2023-04-03T06:13:30;19.77;;;10.43;;
64667;SDS011;51077;42.716;23.344;2023-04-03T06:15:55;17.17;;;10.57;;
64667;SDS011;51077;42.716;23.344;2023-04-03T06:18:21;17.33;;;10.98;;
64667;SDS011;51077;42.716;23.344;2023-04-03T06:20:46;18.00;;;9.50;;
64667;SDS011;51077;42.716;23.344;2023-04-03T06:23:12;18.30;;;9.60;;
64667;SDS011;51077;42.716;23.344;2023-04-03T06:25:37;18.20;;;9.60;;
64667;SDS011;51077;42.716;23.344;2023-04-03T06:28:03;16.00;;;9.70;;
64667;SDS011;51077;42.716;23.344;2023-04-03T06:30:28;20.20;;;10.50;;
64667;SDS011;51077;42.716;23.344;2023-04-03T06:32:54;18.97;;;10.47;;
64667;SDS011;51077;42.716;23.344;2023-04-03T06:35:20;17.45;;;9.35;;
64667;SDS011;51077;42.716;23.344;2023-04-03T06:37:48;17.23;;;9.65;;
64667;SDS011;51077;42.716;23.344;2023-04-03T06:40:18;14.70;;;9.07;;
64667;SDS011;51077;42.716;23.344;2023-04-03T06:42:47;18.23;;;9.07;;
64667;SDS011;51077;42.716;23.344;2023-04-03T06:45:12;13.60;;;8.43;;
64667;SDS011;51077;42.716;23.344;2023-04-03T06:47:37;21.97;;;8.90;;
64667;SDS011;51077;42.716;23.344;2023-04-03T06:50:03;15.23;;;8.43;;
64667;SDS011;51077;42.716;23.344;2023-04-03T06:52:29;12.48;;;7.45;;
64667;SDS011;51077;42.716;23.344;2023-04-03T06:54:55;14.03;;;7.93;;
64667;SDS011;51077;42.716;23.344;2023-04-03T06:57:22;14.15;;;8.55;;
64667;SDS011;51077;42.716;23.344;2023-04-03T06:59:48;14.60;;;8.23;;
64667;SDS011;51077;42.716;23.344;2023-04-03T07:02:13;12.80;;;8.17;;
64667;SDS011;51077;42.716;23.344;2023-04-03T07:04:39;16.75;;;8.65;;
64667;SDS011;51077;42.716;23.344;2023-04-03T07:07:05;12.27;;;8.00;;
64667;SDS011;51077;42.716;23.344;2023-04-03T07:09:30;14.17;;;8.23;;
64667;SDS011;51077;42.716;23.344;2023-04-03T07:11:56;11.67;;;7.50;;
64667;SDS011;51077;42.716;23.344;2023-04-03T07:14:21;16.07;;;7.97;;
64667;SDS011;51077;42.716;23.344;2023-04-03T07:16:47;13.23;;;7.60;;
64667;SDS011;51077;42.716;23.344;2023-04-03T07:19:12;13.70;;;7.70;;
64667;SDS011;51077;42.716;23.344;2023-04-03T07:21:37;14.37;;;8.70;;
64667;SDS011;51077;42.716;23.344;2023-04-03T07:24:03;12.63;;;7.57;;
64667;SDS011;51077;42.716;23.344;2023-04-03T07:26:28;11.57;;;7.13;;
64667;SDS011;51077;42.716;23.344;2023-04-03T07:28:54;13.03;;;7.60;;
64667;SDS011;51077;42.716;23.344;2023-04-03T07:31:19;16.70;;;7.67;;
64667;SDS011;51077;42.716;23.344;2023-04-03T07:33:45;14.73;;;8.10;;
64667;SDS011;51077;42.716;23.344;2023-04-03T07:36:12;13.47;;;6.80;;
64667;SDS011;51077;42.716;23.344;2023-04-03T07:38:40;12.73;;;7.20;;
64667;SDS011;51077;42.716;23.344;2023-04-03T07:41:06;10.93;;;7.27;;
64667;SDS011;51077;42.716;23.344;2023-04-03T07:43:31;12.70;;;7.23;;
64667;SDS011;51077;42.716;23.344;2023-04-03T07:45:57;11.50;;;6.90;;
64667;SDS011;51077;42.716;23.344;2023-04-03T07:48:24;16.93;;;7.47;;
64667;SDS011;51077;42.716;23.344;2023-04-03T07:50:50;13.57;;;7.00;;
64667;SDS011;51077;42.716;23.344;2023-04-03T07:53:17;11.98;;;7.30;;
64667;SDS011;51077;42.716;23.344;2023-04-03T07:55:42;12.23;;;7.57;;
64667;SDS011;51077;42.716;23.344;2023-04-03T07:58:11;15.27;;;8.70;;
64667;SDS011;51077;42.716;23.344;2023-04-03T08:00:38;17.90;;;8.75;;
64667;SDS011;51077;42.716;23.344;2023-04-03T08:03:04;14.98;;;8.13;;
64667;SDS011;51077;42.716;23.344;2023-04-03T08:05:31;13.32;;;8.02;;
64667;SDS011;51077;42.716;23.344;2023-04-03T08:07:56;15.57;;;8.70;;
64667;SDS011;51077;42.716;23.344;2023-04-03T08:10:22;13.83;;;8.00;;
64667;SDS011;51077;42.716;23.344;2023-04-03T08:12:47;15.47;;;8.53;;
64667;SDS011;51077;42.716;23.344;2023-04-03T08:15:13;13.17;;;8.03;;
64667;SDS011;51077;42.716;23.344;2023-04-03T08:17:38;14.70;;;7.87;;
64667;SDS011;51077;42.716;23.344;2023-04-03T08:20:04;12.23;;;7.93;;
64667;SDS011;51077;42.716;23.344;2023-04-03T08:22:32;10.07;;;6.75;;
64667;SDS011;51077;42.716;23.344;2023-04-03T08:24:57;13.40;;;7.28;;
64667;SDS011;51077;42.716;23.344;2023-04-03T08:27:22;11.43;;;6.83;;
64667;SDS011;51077;42.716;23.344;2023-04-03T08:29:48;17.00;;;8.07;;
64667;SDS011;51077;42.716;23.344;2023-04-03T08:32:21;9.82;;;7.18;;
64667;SDS011;51077;42.716;23.344;2023-04-03T08:34:48;15.32;;;7.28;;
64667;SDS011;51077;42.716;23.344;2023-04-03T08:37:13;10.63;;;7.23;;
64667;SDS011;51077;42.716;23.344;2023-04-03T08:39:38;11.03;;;6.80;;
64667;SDS011;51077;42.716;23.344;2023-04-03T08:42:13;12.07;;;6.63;;
64667;SDS011;51077;42.716;23.344;2023-04-03T08:50:00;9.60;;;6.00;;
64667;SDS011;51077;42.716;23.344;2023-04-03T09:00:45;14.48;;;6.90;;
64667;SDS011;51077;42.716;23.344;2023-04-03T09:03:19;14.43;;;6.80;;
64667;SDS011;51077;42.716;23.344;2023-04-03T09:20:31;10.30;;;6.57;;
64667;SDS011;51077;42.716;23.344;2023-04-03T09:25:56;13.15;;;7.80;;
64667;SDS011;51077;42.716;23.344;2023-04-03T09:28:37;13.23;;;7.75;;
64667;SDS011;51077;42.716;23.344;2023-04-03T09:31:20;11.57;;;6.85;;
64667;SDS011;51077;42.716;23.344;2023-04-03T09:33:50;13.07;;;7.72;;
64667;SDS011;51077;42.716;23.344;2023-04-03T09:39:10;14.30;;;7.22;;
64667;SDS011;51077;42.716;23.344;2023-04-03T09:44:17;15.70;;;7.70;;
64667;SDS011;51077;42.716;23.344;2023-04-03T09:46:46;16.70;;;8.27;;
64667;SDS011;51077;42.716;23.344;2023-04-03T09:49:12;11.55;;;6.97;;
64667;SDS011;51077;42.716;23.344;2023-04-03T09:51:37;12.00;;;6.70;;
64667;SDS011;51077;42.716;23.344;2023-04-03T09:57:14;12.55;;;6.50;;
64667;SDS011;51077;42.716;23.344;2023-04-03T09:59:42;12.02;;;7.03;;
64667;SDS011;51077;42.716;23.344;2023-04-03T10:04:37;9.33;;;6.10;;
64667;SDS011;51077;42.716;23.344;2023-04-03T10:07:04;10.80;;;5.68;;
64667;SDS011;51077;42.716;23.344;2023-04-03T10:09:58;14.43;;;6.43;;
64667;SDS011;51077;42.716;23.344;2023-04-03T10:12:26;10.02;;;6.40;;
64667;SDS011;51077;42.716;23.344;2023-04-03T10:17:18;12.33;;;6.80;;
64667;SDS011;51077;42.716;23.344;2023-04-03T10:35:44;9.48;;;5.43;;
64667;SDS011;51077;42.716;23.344;2023-04-03T10:40:52;12.88;;;5.30;;
64667;SDS011;51077;42.716;23.344;2023-04-03T10:43:40;12.77;;;6.63;;
64667;SDS011;51077;42.716;23.344;2023-04-03T10:46:18;8.45;;;5.80;;
64667;SDS011;51077;42.716;23.344;2023-04-03T10:48:55;12.38;;;5.57;;
64667;SDS011;51077;42.716;23.344;2023-04-03T10:51:45;10.30;;;6.10;;
64667;SDS011;51077;42.716;23.344;2023-04-03T10:54:16;11.00;;;5.97;;
64667;SDS011;51077;42.716;23.344;2023-04-03T10:56:53;14.15;;;6.07;;
64667;SDS011;51077;42.716;23.344;2023-04-03T11:02:23;12.88;;;6.30;;
64667;SDS011;51077;42.716;23.344;2023-04-03T11:05:04;11.68;;;6.72;;
64667;SDS011;51077;42.716;23.344;2023-04-03T11:07:39;13.20;;;5.75;;
64667;SDS011;51077;42.716;23.344;2023-04-03T11:10:13;9.13;;;5.13;;
64667;SDS011;51077;42.716;23.344;2023-04-03T11:12:52;10.25;;;5.55;;
64667;SDS011;51077;42.716;23.344;2023-04-03T11:15:23;9.45;;;5.50;;
64667;SDS011;51077;42.716;23.344;2023-04-03T11:17:51;9.82;;;5.50;;
64667;SDS011;51077;42.716;23.344;2023-04-03T11:20:25;11.65;;;6.03;;
64667;SDS011;51077;42.716;23.344;2023-04-03T11:25:29;9.82;;;4.90;;
64667;SDS011;51077;42.716;23.344;2023-04-03T11:28:01;9.73;;;4.20;;
64667;SDS011;51077;42.716;23.344;2023-04-03T11:33:21;8.95;;;4.55;;
64667;SDS011;51077;42.716;23.344;2023-04-03T11:36:42;7.45;;;3.97;;
64667;SDS011;51077;42.716;23.344;2023-04-03T11:38:49;7.30;;;3.97;;
64667;SDS011;51077;42.716;23.344;2023-04-03T11:41:25;7.85;;;3.95;;
64667;SDS011;51077;42.716;23.344;2023-04-03T11:44:05;7.97;;;3.97;;
64667;SDS011;51077;42.716;23.344;2023-04-03T11:46:58;6.40;;;3.78;;
64667;SDS011;51077;42.716;23.344;2023-04-03T12:05:55;6.60;;;3.35;;
64667;SDS011;51077;42.716;23.344;2023-04-03T12:08:36;6.93;;;3.67;;
64667;SDS011;51077;42.716;23.344;2023-04-03T12:13:36;6.20;;;3.77;;
64667;SDS011;51077;42.716;23.344;2023-04-03T12:16:06;6.72;;;3.85;;
64667;SDS011;51077;42.716;23.344;2023-04-03T12:21:16;7.47;;;4.30;;
64667;SDS011;51077;42.716;23.344;2023-04-03T12:26:31;7.30;;;3.92;;
64667;SDS011;51077;42.716;23.344;2023-04-03T12:29:15;8.60;;;4.68;;
64667;SDS011;51077;42.716;23.344;2023-04-03T12:48:29;6.93;;;3.40;;
64667;SDS011;51077;42.716;23.344;2023-04-03T12:50:57;8.23;;;3.97;;
64667;SDS011;51077;42.716;23.344;2023-04-03T12:53:28;6.65;;;3.17;;
64667;SDS011;51077;42.716;23.344;2023-04-03T12:56:44;5.38;;;3.15;;
64667;SDS011;51077;42.716;23.344;2023-04-03T12:58:55;5.15;;;3.08;;
64667;SDS011;51077;42.716;23.344;2023-04-03T13:01:38;6.60;;;2.90;;
64667;SDS011;51077;42.716;23.344;2023-04-03T13:04:03;9.60;;;5.00;;
64667;SDS011;51077;42.716;23.344;2023-04-03T13:06:39;11.63;;;5.75;;
64667;SDS011;51077;42.716;23.344;2023-04-03T13:09:14;14.57;;;6.40;;
64667;SDS011;51077;42.716;23.344;2023-04-03T13:11:48;10.82;;;5.80;;
64667;SDS011;51077;42.716;23.344;2023-04-03T13:14:16;10.77;;;5.57;;
64667;SDS011;51077;42.716;23.344;2023-04-03T13:17:03;11.05;;;5.90;;
64667;SDS011;51077;42.716;23.344;2023-04-03T13:19:37;11.60;;;5.57;;
64667;SDS011;51077;42.716;23.344;2023-04-03T13:22:04;13.13;;;6.87;;
64667;SDS011;51077;42.716;23.344;2023-04-03T13:24:35;12.18;;;6.70;;
64667;SDS011;51077;42.716;23.344;2023-04-03T13:27:03;13.75;;;7.00;;
64667;SDS011;51077;42.716;23.344;2023-04-03T13:29:31;12.60;;;6.85;;
64667;SDS011;51077;42.716;23.344;2023-04-03T13:31:59;11.45;;;6.65;;
64667;SDS011;51077;42.716;23.344;2023-04-03T13:34:28;13.52;;;7.53;;
64667;SDS011;51077;42.716;23.344;2023-04-03T13:37:00;16.92;;;8.55;;
64667;SDS011;51077;42.716;23.344;2023-04-03T13:39:33;20.17;;;10.38;;
64667;SDS011;51077;42.716;23.344;2023-04-03T13:42:23;25.70;;;11.95;;
64667;SDS011;51077;42.716;23.344;2023-04-03T13:47:39;26.73;;;12.85;;
64667;SDS011;51077;42.716;23.344;2023-04-03T13:52:59;26.60;;;12.93;;
64667;SDS011;51077;42.716;23.344;2023-04-03T13:55:31;30.30;;;12.98;;
64667;SDS011;51077;42.716;23.344;2023-04-03T14:00:52;24.15;;;12.18;;
64667;SDS011;51077;42.716;23.344;2023-04-03T14:03:29;25.52;;;13.40;;
64667;SDS011;51077;42.716;23.344;2023-04-03T14:05:55;27.10;;;13.05;;
64667;SDS011;51077;42.716;23.344;2023-04-03T14:08:20;22.20;;;12.03;;
64667;SDS011;51077;42.716;23.344;2023-04-03T14:10:46;22.50;;;11.65;;
64667;SDS011;51077;42.716;23.344;2023-04-03T14:13:14;20.83;;;10.80;;
64667;SDS011;51077;42.716;23.344;2023-04-03T14:15:42;19.73;;;9.88;;
64667;SDS011;51077;42.716;23.344;2023-04-03T14:18:11;20.30;;;9.18;;
64667;SDS011;51077;42.716;23.344;2023-04-03T14:20:38;15.25;;;7.65;;
64667;SDS011;51077;42.716;23.344;2023-04-03T14:23:04;13.85;;;7.50;;
64667;SDS011;51077;42.716;23.344;2023-04-03T14:25:31;13.30;;;6.53;;
64667;SDS011;51077;42.716;23.344;2023-04-03T14:27:57;12.23;;;7.55;;
64667;SDS011;51077;42.716;23.344;2023-04-03T14:30:31;15.60;;;8.75;;
64667;SDS011;51077;42.716;23.344;2023-04-03T14:33:01;15.70;;;10.68;;
64667;SDS011;51077;42.716;23.344;2023-04-03T14:35:27;17.87;;;13.67;;
64667;SDS011;51077;42.716;23.344;2023-04-03T14:37:53;17.50;;;14.82;;
64667;SDS011;51077;42.716;23.344;2023-04-03T14:40:24;15.15;;;13.20;;
64667;SDS011;51077;42.716;23.344;2023-04-03T14:42:52;15.43;;;12.27;;
64667;SDS011;51077;42.716;23.344;2023-04-03T14:45:20;13.50;;;10.32;;
64667;SDS011;51077;42.716;23.344;2023-04-03T14:47:50;12.02;;;8.38;;
64667;SDS011;51077;42.716;23.344;2023-04-03T14:50:20;9.70;;;6.78;;
64667;SDS011;51077;42.716;23.344;2023-04-03T14:52:48;11.18;;;7.15;;
64667;SDS011;51077;42.716;23.344;2023-04-03T14:55:16;8.40;;;5.97;;
64667;SDS011;51077;42.716;23.344;2023-04-03T14:57:43;9.07;;;5.72;;
64667;SDS011;51077;42.716;23.344;2023-04-03T15:00:19;9.87;;;5.40;;
64667;SDS011;51077;42.716;23.344;2023-04-03T15:02:46;8.77;;;5.32;;
64667;SDS011;51077;42.716;23.344;2023-04-03T15:05:12;9.23;;;4.97;;
64667;SDS011;51077;42.716;23.344;2023-04-03T15:07:40;8.93;;;5.15;;
64667;SDS011;51077;42.716;23.344;2023-04-03T15:10:18;9.43;;;4.90;;
64667;SDS011;51077;42.716;23.344;2023-04-03T15:12:44;8.75;;;5.13;;
64667;SDS011;51077;42.716;23.344;2023-04-03T15:15:10;9.35;;;4.78;;
64667;SDS011;51077;42.716;23.344;2023-04-03T15:17:39;9.18;;;5.18;;
64667;SDS011;51077;42.716;23.344;2023-04-03T15:20:15;9.00;;;5.35;;
64667;SDS011;51077;42.716;23.344;2023-04-03T15:22:47;10.70;;;6.13;;
64667;SDS011;51077;42.716;23.344;2023-04-03T15:25:13;9.48;;;5.75;;
64667;SDS011;51077;42.716;23.344;2023-04-03T15:27:39;10.25;;;5.80;;
64667;SDS011;51077;42.716;23.344;2023-04-03T15:30:10;11.52;;;6.38;;
64667;SDS011;51077;42.716;23.344;2023-04-03T15:32:38;11.25;;;6.50;;
64667;SDS011;51077;42.716;23.344;2023-04-03T15:35:04;11.13;;;7.00;;
64667;SDS011;51077;42.716;23.344;2023-04-03T15:37:30;10.43;;;6.78;;
64667;SDS011;51077;42.716;23.344;2023-04-03T15:39:56;11.30;;;6.80;;
64667;SDS011;51077;42.716;23.344;2023-04-03T15:42:21;11.40;;;6.87;;
64667;SDS011;51077;42.716;23.344;2023-04-03T15:44:46;12.63;;;6.77;;
64667;SDS011;51077;42.716;23.344;2023-04-03T15:47:12;10.47;;;6.63;;
64667;SDS011;51077;42.716;23.344;2023-04-03T15:49:38;11.57;;;6.40;;
64667;SDS011;51077;42.716;23.344;2023-04-03T15:52:04;10.52;;;6.35;;
64667;SDS011;51077;42.716;23.344;2023-04-03T15:54:29;10.67;;;6.43;;
64667;SDS011;51077;42.716;23.344;2023-04-03T15:56:55;11.40;;;6.37;;
64667;SDS011;51077;42.716;23.344;2023-04-03T15:59:23;9.50;;;6.20;;
64667;SDS011;51077;42.716;23.344;2023-04-03T16:01:49;12.18;;;5.88;;
64667;SDS011;51077;42.716;23.344;2023-04-03T16:04:16;12.32;;;6.18;;
64667;SDS011;51077;42.716;23.344;2023-04-03T16:06:42;10.52;;;5.80;;
64667;SDS011;51077;42.716;23.344;2023-04-03T16:09:08;12.23;;;5.67;;
64667;SDS011;51077;42.716;23.344;2023-04-03T16:11:35;11.10;;;6.07;;
64667;SDS011;51077;42.716;23.344;2023-04-03T16:14:03;10.68;;;5.53;;
64667;SDS011;51077;42.716;23.344;2023-04-03T16:16:29;13.93;;;6.23;;
64667;SDS011;51077;42.716;23.344;2023-04-03T16:18:55;13.20;;;5.60;;
64667;SDS011;51077;42.716;23.344;2023-04-03T16:21:21;14.23;;;6.40;;
64667;SDS011;51077;42.716;23.344;2023-04-03T16:23:47;12.05;;;5.95;;
64667;SDS011;51077;42.716;23.344;2023-04-03T16:26:13;10.53;;;5.70;;
64667;SDS011;51077;42.716;23.344;2023-04-03T16:28:42;13.98;;;7.20;;
64667;SDS011;51077;42.716;23.344;2023-04-03T16:31:07;12.10;;;6.53;;
64667;SDS011;51077;42.716;23.344;2023-04-03T16:33:33;12.47;;;7.13;;
64667;SDS011;51077;42.716;23.344;2023-04-03T16:36:00;15.25;;;6.05;;
64667;SDS011;51077;42.716;23.344;2023-04-03T16:38:26;10.40;;;5.57;;
64667;SDS011;51077;42.716;23.344;2023-04-03T16:40:52;11.90;;;6.13;;
64667;SDS011;51077;42.716;23.344;2023-04-03T16:43:21;9.40;;;5.70;;
64667;SDS011;51077;42.716;23.344;2023-04-03T16:45:49;10.23;;;5.53;;